sensor_id;sensor_type;location;lat;lon;timestamp;pressure;altitude;pressure_sealevel;temperature;humidity
52983;BME280;48698;45.736;13.926;2023-08-17T00:03:57;97751.34;;;20.26;100.00
52983;BME280;48698;45.736;13.926;2023-08-17T00:09:01;97744.41;;;20.63;100.00
52983;BME280;48698;45.736;13.926;2023-08-17T00:14:05;97773.72;;;20.87;100.00
52983;BME280;48698;45.736;13.926;2023-08-17T00:19:08;97693.47;;;20.00;100.00
52983;BME280;48698;45.736;13.926;2023-08-17T00:24:12;97734.91;;;20.29;100.00
52983;BME280;48698;45.736;13.926;2023-08-17T00:29:15;97732.13;;;19.89;100.00
52983;BME280;48698;45.736;13.926;2023-08-17T00:34:20;97716.31;;;20.05;100.00
52983;BME280;48698;45.736;13.926;2023-08-17T00:39:24;97738.66;;;20.38;100.00
52983;BME280;48698;45.736;13.926;2023-08-17T00:44:27;97567.19;;;19.95;100.00
52983;BME280;48698;45.736;13.926;2023-08-17T00:49:32;97762.25;;;20.55;100.00
52983;BME280;48698;45.736;13.926;2023-08-17T00:54:35;97663.72;;;19.50;100.00
52983;BME280;48698;45.736;13.926;2023-08-17T00:59:39;97617.66;;;19.84;100.00
52983;BME280;48698;45.736;13.926;2023-08-17T01:04:46;97754.31;;;21.32;100.00
52983;BME280;48698;45.736;13.926;2023-08-17T01:09:50;97748.88;;;21.80;100.00
52983;BME280;48698;45.736;13.926;2023-08-17T01:20:10;97630.50;;;21.27;100.00
52983;BME280;48698;45.736;13.926;2023-08-17T01:25:15;97628.22;;;21.23;100.00
52983;BME280;48698;45.736;13.926;2023-08-17T01:30:19;97752.03;;;21.65;100.00
52983;BME280;48698;45.736;13.926;2023-08-17T01:40:41;97601.81;;;19.60;100.00
52983;BME280;48698;45.736;13.926;2023-08-17T01:45:46;97756.69;;;20.17;100.00
52983;BME280;48698;45.736;13.926;2023-08-17T01:50:50;97732.03;;;20.21;100.00
52983;BME280;48698;45.736;13.926;2023-08-17T01:55:53;97763.81;;;20.48;100.00
52983;BME280;48698;45.736;13.926;2023-08-17T02:00:57;97731.81;;;20.34;100.00
52983;BME280;48698;45.736;13.926;2023-08-17T02:06:00;97763.66;;;20.49;100.00
52983;BME280;48698;45.736;13.926;2023-08-17T02:11:04;97751.91;;;20.60;100.00
52983;BME280;48698;45.736;13.926;2023-08-17T02:16:08;97544.50;;;19.48;100.00
52983;BME280;48698;45.736;13.926;2023-08-17T02:21:11;97618.09;;;20.38;100.00
52983;BME280;48698;45.736;13.926;2023-08-17T02:26:16;97637.03;;;20.67;100.00
52983;BME280;48698;45.736;13.926;2023-08-17T02:31:19;97728.03;;;21.34;100.00
52983;BME280;48698;45.736;13.926;2023-08-17T02:36:23;97613.72;;;20.28;100.00
52983;BME280;48698;45.736;13.926;2023-08-17T02:41:26;97713.81;;;20.44;100.00
52983;BME280;48698;45.736;13.926;2023-08-17T02:46:30;97757.34;;;20.70;100.00
52983;BME280;48698;45.736;13.926;2023-08-17T02:51:33;97479.56;;;19.12;100.00
52983;BME280;48698;45.736;13.926;2023-08-17T02:56:37;97678.44;;;20.28;100.00
52983;BME280;48698;45.736;13.926;2023-08-17T03:01:40;97738.13;;;20.53;100.00
52983;BME280;48698;45.736;13.926;2023-08-17T03:06:44;97459.28;;;18.56;100.00
52983;BME280;48698;45.736;13.926;2023-08-17T03:11:47;97742.94;;;20.20;100.00
52983;BME280;48698;45.736;13.926;2023-08-17T03:16:51;97605.59;;;19.27;100.00
52983;BME280;48698;45.736;13.926;2023-08-17T03:21:54;97519.75;;;18.83;100.00
52983;BME280;48698;45.736;13.926;2023-08-17T03:26:58;97696.13;;;19.90;100.00
52983;BME280;48698;45.736;13.926;2023-08-17T03:32:01;97635.66;;;19.53;100.00
52983;BME280;48698;45.736;13.926;2023-08-17T03:37:05;97665.28;;;20.13;100.00
52983;BME280;48698;45.736;13.926;2023-08-17T03:42:08;97588.44;;;20.29;100.00
52983;BME280;48698;45.736;13.926;2023-08-17T03:47:11;97671.72;;;20.91;100.00
52983;BME280;48698;45.736;13.926;2023-08-17T03:52:15;97447.38;;;19.10;100.00
52983;BME280;48698;45.736;13.926;2023-08-17T03:57:24;97735.47;;;20.82;100.00
52983;BME280;48698;45.736;13.926;2023-08-17T04:02:28;97570.91;;;19.54;100.00
52983;BME280;48698;45.736;13.926;2023-08-17T04:07:32;97534.00;;;18.94;100.00
52983;BME280;48698;45.736;13.926;2023-08-17T04:12:35;97624.88;;;19.53;100.00
52983;BME280;48698;45.736;13.926;2023-08-17T04:17:39;97608.31;;;19.37;100.00
52983;BME280;48698;45.736;13.926;2023-08-17T04:22:42;97751.69;;;20.33;100.00
52983;BME280;48698;45.736;13.926;2023-08-17T04:27:46;97754.59;;;20.50;100.00
52983;BME280;48698;45.736;13.926;2023-08-17T04:32:49;97737.16;;;20.24;100.00
52983;BME280;48698;45.736;13.926;2023-08-17T04:37:55;97717.09;;;20.17;100.00
52983;BME280;48698;45.736;13.926;2023-08-17T04:42:59;97601.53;;;19.63;100.00
52983;BME280;48698;45.736;13.926;2023-08-17T04:48:02;97506.53;;;19.00;100.00
52983;BME280;48698;45.736;13.926;2023-08-17T04:53:06;97679.19;;;20.49;100.00
52983;BME280;48698;45.736;13.926;2023-08-17T04:58:10;97764.09;;;20.94;100.00
52983;BME280;48698;45.736;13.926;2023-08-17T05:03:13;97700.47;;;20.52;100.00
52983;BME280;48698;45.736;13.926;2023-08-17T05:08:33;97668.25;;;20.41;100.00
52983;BME280;48698;45.736;13.926;2023-08-17T05:13:37;97740.78;;;20.93;100.00
52983;BME280;48698;45.736;13.926;2023-08-17T05:18:40;97660.59;;;20.55;100.00
52983;BME280;48698;45.736;13.926;2023-08-17T05:23:43;97545.22;;;20.09;100.00
52983;BME280;48698;45.736;13.926;2023-08-17T05:28:47;97735.97;;;21.64;100.00
52983;BME280;48698;45.736;13.926;2023-08-17T05:33:51;97654.63;;;21.48;100.00
52983;BME280;48698;45.736;13.926;2023-08-17T05:38:54;97762.63;;;22.15;100.00
52983;BME280;48698;45.736;13.926;2023-08-17T05:43:58;97651.19;;;21.55;100.00
52983;BME280;48698;45.736;13.926;2023-08-17T05:49:02;97753.38;;;22.45;100.00
52983;BME280;48698;45.736;13.926;2023-08-17T05:54:05;97762.34;;;22.45;100.00
52983;BME280;48698;45.736;13.926;2023-08-17T05:59:10;97689.03;;;22.11;100.00
52983;BME280;48698;45.736;13.926;2023-08-17T06:04:14;97724.91;;;22.41;100.00
52983;BME280;48698;45.736;13.926;2023-08-17T06:09:18;97734.19;;;22.65;100.00
52983;BME280;48698;45.736;13.926;2023-08-17T06:14:21;97773.19;;;22.82;100.00
52983;BME280;48698;45.736;13.926;2023-08-17T06:19:25;97706.16;;;22.67;100.00
52983;BME280;48698;45.736;13.926;2023-08-17T06:24:29;97762.31;;;23.27;100.00
52983;BME280;48698;45.736;13.926;2023-08-17T06:29:33;97508.81;;;21.93;100.00
52983;BME280;48698;45.736;13.926;2023-08-17T06:34:36;97649.41;;;23.10;100.00
52983;BME280;48698;45.736;13.926;2023-08-17T06:39:40;97601.91;;;23.24;100.00
52983;BME280;48698;45.736;13.926;2023-08-17T06:44:43;97614.13;;;23.45;100.00
52983;BME280;48698;45.736;13.926;2023-08-17T06:49:47;97691.31;;;23.85;100.00
52983;BME280;48698;45.736;13.926;2023-08-17T06:54:51;97586.09;;;23.37;100.00
52983;BME280;48698;45.736;13.926;2023-08-17T06:59:55;97703.63;;;24.23;100.00
52983;BME280;48698;45.736;13.926;2023-08-17T07:04:58;97762.25;;;24.75;100.00
52983;BME280;48698;45.736;13.926;2023-08-17T07:10:02;97570.75;;;23.71;100.00
52983;BME280;48698;45.736;13.926;2023-08-17T07:15:07;97758.59;;;24.92;100.00
52983;BME280;48698;45.736;13.926;2023-08-17T07:20:11;97748.94;;;25.06;100.00
52983;BME280;48698;45.736;13.926;2023-08-17T07:25:19;97761.81;;;25.54;100.00
52983;BME280;48698;45.736;13.926;2023-08-17T07:30:22;97645.16;;;25.02;100.00
52983;BME280;48698;45.736;13.926;2023-08-17T07:35:26;97765.00;;;26.14;100.00
52983;BME280;48698;45.736;13.926;2023-08-17T07:40:30;97764.84;;;26.24;100.00
52983;BME280;48698;45.736;13.926;2023-08-17T07:45:34;97745.81;;;26.24;100.00
52983;BME280;48698;45.736;13.926;2023-08-17T07:50:37;97704.69;;;25.78;100.00
52983;BME280;48698;45.736;13.926;2023-08-17T07:55:41;97701.03;;;26.26;100.00
52983;BME280;48698;45.736;13.926;2023-08-17T08:00:44;97678.34;;;26.42;100.00
52983;BME280;48698;45.736;13.926;2023-08-17T08:05:47;97658.53;;;26.17;100.00
52983;BME280;48698;45.736;13.926;2023-08-17T08:10:53;97773.53;;;27.21;100.00
52983;BME280;48698;45.736;13.926;2023-08-17T08:16:00;97716.69;;;27.10;100.00
52983;BME280;48698;45.736;13.926;2023-08-17T08:21:04;97532.34;;;26.41;100.00
52983;BME280;48698;45.736;13.926;2023-08-17T08:26:07;97778.72;;;27.84;100.00
52983;BME280;48698;45.736;13.926;2023-08-17T08:31:11;97610.63;;;27.00;100.00
52983;BME280;48698;45.736;13.926;2023-08-17T08:36:15;97627.84;;;27.38;100.00
52983;BME280;48698;45.736;13.926;2023-08-17T08:41:19;97723.25;;;28.44;100.00
52983;BME280;48698;45.736;13.926;2023-08-17T08:46:25;97689.72;;;28.50;100.00
52983;BME280;48698;45.736;13.926;2023-08-17T08:56:15;97731.66;;;29.07;100.00
52983;BME280;48698;45.736;13.926;2023-08-17T09:10:52;97679.31;;;29.25;100.00
52983;BME280;48698;45.736;13.926;2023-08-17T12:24:33;97575.63;;;31.67;77.45
52983;BME280;48698;45.736;13.926;2023-08-17T13:03:25;97452.56;;;30.79;82.40
52983;BME280;48698;45.736;13.926;2023-08-17T13:47:01;97573.22;;;32.23;86.14
52983;BME280;48698;45.736;13.926;2023-08-17T13:56:56;97463.06;;;31.48;83.72
52983;BME280;48698;45.736;13.926;2023-08-17T15:05:21;97406.88;;;29.65;100.00
52983;BME280;48698;45.736;13.926;2023-08-17T15:10:30;97559.59;;;30.10;100.00
52983;BME280;48698;45.736;13.926;2023-08-17T15:15:35;97353.28;;;29.02;100.00
52983;BME280;48698;45.736;13.926;2023-08-17T15:20:40;97556.22;;;30.08;100.00
52983;BME280;48698;45.736;13.926;2023-08-17T15:25:44;97566.78;;;30.18;100.00
52983;BME280;48698;45.736;13.926;2023-08-17T15:30:50;97516.38;;;29.71;100.00
52983;BME280;48698;45.736;13.926;2023-08-17T15:36:03;97540.97;;;29.37;100.00
52983;BME280;48698;45.736;13.926;2023-08-17T15:41:07;97595.19;;;29.55;100.00
52983;BME280;48698;45.736;13.926;2023-08-17T15:46:11;97299.97;;;28.08;100.00
52983;BME280;48698;45.736;13.926;2023-08-17T15:51:14;97366.03;;;28.03;100.00
52983;BME280;48698;45.736;13.926;2023-08-17T15:56:18;97490.00;;;28.45;100.00
52983;BME280;48698;45.736;13.926;2023-08-17T16:01:22;97513.41;;;28.33;100.00
52983;BME280;48698;45.736;13.926;2023-08-17T16:06:26;97591.69;;;29.18;100.00
52983;BME280;48698;45.736;13.926;2023-08-17T16:11:29;97311.31;;;27.69;100.00
52983;BME280;48698;45.736;13.926;2023-08-17T16:16:38;97557.53;;;28.51;100.00
52983;BME280;48698;45.736;13.926;2023-08-17T16:21:42;97485.13;;;28.61;100.00
52983;BME280;48698;45.736;13.926;2023-08-17T16:26:45;97476.34;;;29.08;100.00
52983;BME280;48698;45.736;13.926;2023-08-17T16:31:59;97509.41;;;29.35;100.00
52983;BME280;48698;45.736;13.926;2023-08-17T16:37:11;97312.00;;;27.78;100.00
52983;BME280;48698;45.736;13.926;2023-08-17T16:42:14;97493.72;;;28.73;100.00
52983;BME280;48698;45.736;13.926;2023-08-17T16:47:18;97529.34;;;29.56;100.00
52983;BME280;48698;45.736;13.926;2023-08-17T16:57:08;97431.75;;;28.59;100.00
52983;BME280;48698;45.736;13.926;2023-08-17T17:11:42;97493.84;;;28.14;100.00
52983;BME280;48698;45.736;13.926;2023-08-17T17:16:45;97533.59;;;27.44;100.00
52983;BME280;48698;45.736;13.926;2023-08-17T17:21:49;97557.84;;;26.70;100.00
52983;BME280;48698;45.736;13.926;2023-08-17T17:26:52;97649.09;;;27.51;100.00
52983;BME280;48698;45.736;13.926;2023-08-17T17:31:56;97641.88;;;27.12;100.00
52983;BME280;48698;45.736;13.926;2023-08-17T17:37:00;97641.53;;;26.85;100.00
52983;BME280;48698;45.736;13.926;2023-08-17T17:42:04;97544.78;;;25.96;100.00
52983;BME280;48698;45.736;13.926;2023-08-17T17:47:11;97563.25;;;25.78;100.00
52983;BME280;48698;45.736;13.926;2023-08-17T17:52:15;97551.09;;;25.17;100.00
52983;BME280;48698;45.736;13.926;2023-08-17T17:57:18;97379.69;;;24.32;100.00
52983;BME280;48698;45.736;13.926;2023-08-17T18:02:26;97510.81;;;25.29;100.00
52983;BME280;48698;45.736;13.926;2023-08-17T18:07:29;97676.44;;;25.79;100.00
52983;BME280;48698;45.736;13.926;2023-08-17T18:12:33;97670.19;;;25.62;100.00
52983;BME280;48698;45.736;13.926;2023-08-17T18:17:37;97615.28;;;25.27;100.00
52983;BME280;48698;45.736;13.926;2023-08-17T18:22:41;97435.81;;;24.23;100.00
52983;BME280;48698;45.736;13.926;2023-08-17T18:27:44;97623.44;;;25.02;100.00
52983;BME280;48698;45.736;13.926;2023-08-17T18:32:48;97563.97;;;24.75;100.00
52983;BME280;48698;45.736;13.926;2023-08-17T18:37:54;97486.75;;;23.79;100.00
52983;BME280;48698;45.736;13.926;2023-08-17T18:42:58;97677.53;;;24.80;100.00
52983;BME280;48698;45.736;13.926;2023-08-17T18:48:01;97676.91;;;24.36;100.00
52983;BME280;48698;45.736;13.926;2023-08-17T18:53:04;97630.19;;;23.64;100.00
52983;BME280;48698;45.736;13.926;2023-08-17T18:58:08;97641.81;;;24.42;100.00
52983;BME280;48698;45.736;13.926;2023-08-17T19:03:13;97639.16;;;24.75;100.00
52983;BME280;48698;45.736;13.926;2023-08-17T19:08:16;97618.53;;;24.32;100.00
52983;BME280;48698;45.736;13.926;2023-08-17T19:13:20;97662.22;;;24.21;100.00
52983;BME280;48698;45.736;13.926;2023-08-17T19:18:24;97572.88;;;24.27;100.00
52983;BME280;48698;45.736;13.926;2023-08-17T19:23:27;97632.19;;;24.56;100.00
52983;BME280;48698;45.736;13.926;2023-08-17T19:28:31;97488.47;;;23.88;100.00
52983;BME280;48698;45.736;13.926;2023-08-17T19:33:35;97529.13;;;23.88;100.00
52983;BME280;48698;45.736;13.926;2023-08-17T19:38:38;97439.84;;;23.45;100.00
52983;BME280;48698;45.736;13.926;2023-08-17T19:43:42;97612.22;;;23.89;100.00
52983;BME280;48698;45.736;13.926;2023-08-17T19:48:45;97541.53;;;23.31;100.00
52983;BME280;48698;45.736;13.926;2023-08-17T19:53:49;97559.19;;;23.17;100.00
52983;BME280;48698;45.736;13.926;2023-08-17T19:58:52;97650.91;;;23.48;100.00
52983;BME280;48698;45.736;13.926;2023-08-17T20:03:55;97658.03;;;23.49;100.00
52983;BME280;48698;45.736;13.926;2023-08-17T20:08:59;97670.88;;;23.47;100.00
52983;BME280;48698;45.736;13.926;2023-08-17T20:14:03;97607.75;;;23.37;100.00
52983;BME280;48698;45.736;13.926;2023-08-17T20:19:07;97646.88;;;23.52;100.00
52983;BME280;48698;45.736;13.926;2023-08-17T20:24:11;97663.25;;;23.68;100.00
52983;BME280;48698;45.736;13.926;2023-08-17T20:29:16;97666.66;;;23.96;100.00
52983;BME280;48698;45.736;13.926;2023-08-17T20:34:19;97495.22;;;22.38;100.00
52983;BME280;48698;45.736;13.926;2023-08-17T20:39:23;97647.19;;;23.49;100.00
52983;BME280;48698;45.736;13.926;2023-08-17T20:44:26;97668.94;;;24.08;100.00
52983;BME280;48698;45.736;13.926;2023-08-17T20:49:29;97477.06;;;23.17;100.00
52983;BME280;48698;45.736;13.926;2023-08-17T20:54:33;97640.88;;;23.92;100.00
52983;BME280;48698;45.736;13.926;2023-08-17T20:59:36;97674.31;;;23.75;100.00
52983;BME280;48698;45.736;13.926;2023-08-17T21:04:40;97687.59;;;23.60;100.00
52983;BME280;48698;45.736;13.926;2023-08-17T21:09:43;97686.22;;;23.82;100.00
52983;BME280;48698;45.736;13.926;2023-08-17T21:14:47;97683.16;;;24.10;100.00
52983;BME280;48698;45.736;13.926;2023-08-17T21:19:52;97665.66;;;24.31;100.00
52983;BME280;48698;45.736;13.926;2023-08-17T21:24:55;97691.19;;;23.86;100.00
52983;BME280;48698;45.736;13.926;2023-08-17T21:29:58;97662.47;;;23.32;100.00
52983;BME280;48698;45.736;13.926;2023-08-17T21:35:02;97617.78;;;22.48;100.00
52983;BME280;48698;45.736;13.926;2023-08-17T21:40:06;97701.94;;;23.17;100.00
52983;BME280;48698;45.736;13.926;2023-08-17T21:45:09;97615.06;;;22.75;100.00
52983;BME280;48698;45.736;13.926;2023-08-17T21:50:13;97670.38;;;23.26;100.00
52983;BME280;48698;45.736;13.926;2023-08-17T21:55:17;97535.69;;;22.57;100.00
52983;BME280;48698;45.736;13.926;2023-08-17T22:00:20;97704.03;;;23.58;100.00
52983;BME280;48698;45.736;13.926;2023-08-17T22:05:23;97647.53;;;23.10;100.00
52983;BME280;48698;45.736;13.926;2023-08-17T22:10:27;97691.88;;;23.27;100.00
52983;BME280;48698;45.736;13.926;2023-08-17T22:15:31;97626.34;;;22.88;100.00
52983;BME280;48698;45.736;13.926;2023-08-17T22:20:38;97688.56;;;23.15;100.00
52983;BME280;48698;45.736;13.926;2023-08-17T22:25:41;97641.72;;;23.23;100.00
52983;BME280;48698;45.736;13.926;2023-08-17T22:30:48;97654.22;;;22.53;100.00
52983;BME280;48698;45.736;13.926;2023-08-17T22:35:52;97705.56;;;22.90;100.00
52983;BME280;48698;45.736;13.926;2023-08-17T22:40:55;97710.84;;;23.27;100.00
52983;BME280;48698;45.736;13.926;2023-08-17T22:46:00;97716.72;;;23.05;100.00
52983;BME280;48698;45.736;13.926;2023-08-17T22:51:04;97714.88;;;23.23;100.00
52983;BME280;48698;45.736;13.926;2023-08-17T22:56:07;97693.13;;;23.33;100.00
52983;BME280;48698;45.736;13.926;2023-08-17T23:01:11;97693.19;;;23.41;100.00
52983;BME280;48698;45.736;13.926;2023-08-17T23:06:14;97705.00;;;23.75;100.00
52983;BME280;48698;45.736;13.926;2023-08-17T23:11:18;97505.41;;;22.61;100.00
52983;BME280;48698;45.736;13.926;2023-08-17T23:16:21;97714.13;;;24.00;100.00
52983;BME280;48698;45.736;13.926;2023-08-17T23:21:25;97548.59;;;22.81;100.00
52983;BME280;48698;45.736;13.926;2023-08-17T23:26:28;97523.91;;;22.84;100.00
52983;BME280;48698;45.736;13.926;2023-08-17T23:31:32;97698.69;;;23.92;100.00
52983;BME280;48698;45.736;13.926;2023-08-17T23:36:35;97703.19;;;24.09;100.00
52983;BME280;48698;45.736;13.926;2023-08-17T23:41:40;97607.53;;;23.48;100.00
52983;BME280;48698;45.736;13.926;2023-08-17T23:46:44;97697.38;;;24.04;100.00
52983;BME280;48698;45.736;13.926;2023-08-17T23:51:47;97515.09;;;22.82;100.00
52983;BME280;48698;45.736;13.926;2023-08-17T23:56:54;97703.03;;;23.85;100.00
